オスロ の空港の天気 - METARとTAF

オスロ空港 ( ENGM / OSL ) - ノルウェー アーケシュフース県オスロ
飛行場実況気象(Metar)
観測時間08/25 20:50 CEST (08/25 18:50 UTC)
風向・風速南南西 3m/s
視程10km以上
天気現象
なし
気温19℃
湿度68%
気圧1022hPa
METARENGM 251850Z 20006KT CAVOK 19/13 Q1022 NOSIG
過去の天気等 Google飛行場航空写真 Wunderground天気予報

過去48時間のMETAR

飛行場予報(TAF)
発表時間: -
26日0時 CEST から 確率 40% で
視程500m
天気現象
全天を覆う雲 鉛直視程 30m
TAF ENGM 2518/2618 20008KT 9999 FEW030 SCT180
PROB40 2522/2608 0500 FG VV001